createdAt,value
2023-01-30T00:00:08.705Z,19.28
2023-01-30T00:00:22.717Z,19.28
2023-01-30T00:00:36.707Z,19.25
2023-01-30T00:00:50.805Z,19.28
2023-01-30T00:01:04.793Z,19.28
2023-01-30T00:01:18.789Z,19.28
2023-01-30T00:01:32.801Z,19.25
2023-01-30T00:01:46.889Z,19.25
2023-01-30T00:02:00.972Z,19.28
2023-01-30T00:02:15.073Z,19.25
2023-01-30T00:02:29.056Z,19.25
2023-01-30T00:02:43.049Z,19.25
2023-01-30T00:03:11.004Z,19.25
2023-01-30T00:03:24.994Z,19.25
2023-01-30T00:03:38.972Z,19.25
2023-01-30T00:03:52.944Z,19.24
2023-01-30T00:04:06.944Z,19.24
2023-01-30T00:04:20.924Z,19.28
2023-01-30T00:04:34.917Z,19.24
2023-01-30T00:04:48.967Z,19.25
2023-01-30T00:05:03.035Z,19.24
2023-01-30T00:05:17.117Z,19.25
2023-01-30T00:05:31.140Z,19.25
2023-01-30T00:05:45.123Z,19.24
2023-01-30T00:05:59.112Z,19.25
2023-01-30T00:06:13.101Z,19.28
2023-01-30T00:06:27.105Z,19.25
2023-01-30T00:06:41.091Z,19.28
2023-01-30T00:06:55.118Z,19.24
2023-01-30T00:07:09.107Z,19.24
2023-01-30T00:07:23.117Z,19.25
2023-01-30T00:07:51.092Z,19.25
2023-01-30T00:08:05.089Z,19.25
2023-01-30T00:08:19.083Z,19.24
2023-01-30T00:08:33.066Z,19.25
2023-01-30T00:08:47.068Z,19.25
2023-01-30T00:09:01.117Z,19.25
2023-01-30T00:09:15.149Z,19.24
2023-01-30T00:09:29.139Z,19.25
2023-01-30T00:09:43.132Z,19.24
2023-01-30T00:09:57.126Z,19.23
2023-01-30T00:10:11.150Z,19.24
2023-01-30T00:10:26.131Z,19.23
2023-01-30T00:10:40.176Z,19.24
2023-01-30T00:10:54.186Z,19.23
2023-01-30T00:11:08.208Z,19.25
2023-01-30T00:11:22.234Z,19.24
2023-01-30T00:11:36.228Z,19.25
2023-01-30T00:11:50.735Z,19.21
2023-01-30T00:12:04.734Z,19.23
2023-01-30T00:12:18.731Z,19.23
2023-01-30T00:12:32.721Z,19.24
2023-01-30T00:13:00.701Z,19.23
2023-01-30T00:13:14.768Z,19.23
2023-01-30T00:13:28.752Z,19.23
2023-01-30T00:13:42.742Z,19.23
2023-01-30T00:13:56.728Z,19.23
2023-01-30T00:14:10.724Z,19.24
2023-01-30T00:14:24.736Z,19.25
2023-01-30T00:14:38.725Z,19.23
2023-01-30T00:14:52.720Z,19.24
2023-01-30T00:15:06.730Z,19.25
2023-01-30T00:15:20.711Z,19.23
2023-01-30T00:15:34.697Z,19.21
2023-01-30T00:15:48.677Z,19.25
2023-01-30T00:16:02.718Z,19.23
2023-01-30T00:16:16.789Z,19.24
2023-01-30T00:16:30.884Z,19.21
2023-01-30T00:16:44.941Z,19.23
2023-01-30T00:16:58.980Z,19.24
2023-01-30T00:17:12.977Z,19.24
2023-01-30T00:17:40.972Z,19.24
2023-01-30T00:17:54.968Z,19.23
2023-01-30T00:18:08.951Z,19.23
2023-01-30T00:18:22.949Z,19.23
2023-01-30T00:18:36.950Z,19.23
2023-01-30T00:18:50.975Z,19.21
2023-01-30T00:19:04.966Z,19.24
2023-01-30T00:19:18.963Z,19.23
2023-01-30T00:19:32.960Z,19.21
2023-01-30T00:19:46.956Z,19.23
2023-01-30T00:20:00.947Z,19.24
2023-01-30T00:20:15.887Z,19.21
2023-01-30T00:20:29.942Z,19.21
2023-01-30T00:20:43.944Z,19.21
2023-01-30T00:20:57.932Z,19.21
2023-01-30T00:21:11.910Z,19.23
2023-01-30T00:21:25.904Z,19.24
2023-01-30T00:21:39.898Z,19.24
2023-01-30T00:21:53.905Z,19.23
2023-01-30T00:22:07.888Z,19.23
2023-01-30T00:22:21.871Z,19.21
2023-01-30T00:23:00.463Z,19.23
2023-01-30T00:23:03.607Z,19.21
2023-01-30T00:23:17.618Z,19.23
2023-01-30T00:23:31.835Z,19.23
2023-01-30T00:23:45.867Z,19.21
2023-01-30T00:23:59.884Z,19.23
2023-01-30T00:24:14.021Z,19.23
2023-01-30T00:24:28.275Z,19.23
2023-01-30T00:24:42.438Z,19.21
2023-01-30T00:24:56.624Z,19.23
2023-01-30T00:25:10.815Z,19.23
2023-01-30T00:25:25.001Z,19.20
2023-01-30T00:25:39.240Z,19.23
2023-01-30T00:25:53.374Z,19.21
2023-01-30T00:26:21.435Z,19.20
2023-01-30T00:26:35.494Z,19.23
2023-01-30T00:26:49.536Z,19.21
2023-01-30T00:27:03.548Z,19.23
2023-01-30T00:27:17.551Z,19.20
2023-01-30T00:27:31.528Z,19.23
2023-01-30T00:27:45.517Z,19.21
2023-01-30T00:27:59.498Z,19.23
2023-01-30T00:28:13.487Z,19.20
2023-01-30T00:28:27.470Z,19.21
2023-01-30T00:28:41.467Z,19.23
2023-01-30T00:28:55.453Z,19.23
2023-01-30T00:29:09.452Z,19.21
2023-01-30T00:29:23.437Z,19.21
2023-01-30T00:29:37.434Z,19.21
2023-01-30T00:30:02.190Z,19.21
2023-01-30T00:30:05.231Z,19.20
2023-01-30T00:30:19.587Z,19.21
2023-01-30T00:30:33.736Z,19.20
2023-01-30T00:30:47.766Z,19.21
2023-01-30T00:31:01.851Z,19.20
2023-01-30T00:31:29.931Z,19.20
2023-01-30T00:31:43.988Z,19.21
2023-01-30T00:31:58.096Z,19.21
2023-01-30T00:32:12.080Z,19.21
2023-01-30T00:32:26.065Z,19.21
2023-01-30T00:32:40.050Z,19.21
2023-01-30T00:32:54.033Z,19.21
2023-01-30T00:33:08.012Z,19.21
2023-01-30T00:33:22.028Z,19.21
2023-01-30T00:33:36.016Z,19.21
2023-01-30T00:33:50.041Z,19.20
2023-01-30T00:34:04.540Z,19.21
2023-01-30T00:34:18.531Z,19.20
2023-01-30T00:34:32.529Z,19.21
2023-01-30T00:34:46.506Z,19.21
2023-01-30T00:35:00.507Z,19.21
2023-01-30T00:35:14.504Z,19.20
2023-01-30T00:35:28.832Z,19.20
2023-01-30T00:35:42.958Z,19.23
2023-01-30T00:36:11.144Z,19.21
2023-01-30T00:36:25.138Z,19.21
2023-01-30T00:36:39.123Z,19.21
2023-01-30T00:37:07.204Z,19.21
2023-01-30T00:37:08.578Z,19.21
2023-01-30T00:37:20.176Z,19.20
2023-01-30T00:37:34.178Z,19.20
2023-01-30T00:37:48.167Z,19.20
2023-01-30T00:38:02.192Z,19.20
2023-01-30T00:38:16.189Z,19.20
2023-01-30T00:38:30.187Z,19.20
2023-01-30T00:38:44.172Z,19.20
2023-01-30T00:38:58.179Z,19.20
2023-01-30T00:39:12.179Z,19.21
2023-01-30T00:39:26.175Z,19.20
2023-01-30T00:39:40.155Z,19.21
2023-01-30T00:39:54.148Z,19.21
2023-01-30T00:40:08.140Z,19.20
2023-01-30T00:40:22.129Z,19.20
2023-01-30T00:40:50.118Z,19.21
2023-01-30T00:41:04.114Z,19.21
2023-01-30T00:41:18.107Z,19.21
2023-01-30T00:41:32.094Z,19.21
2023-01-30T00:41:46.097Z,19.20
2023-01-30T00:42:00.208Z,19.20
2023-01-30T00:42:14.199Z,19.21
2023-01-30T00:42:28.197Z,19.21
2023-01-30T00:42:42.207Z,19.20
2023-01-30T00:42:56.202Z,19.20
2023-01-30T00:43:24.191Z,19.21
2023-01-30T00:43:38.224Z,19.20
2023-01-30T00:43:52.270Z,19.20
2023-01-30T00:44:06.269Z,19.21
2023-01-30T00:44:20.242Z,19.20
2023-01-30T00:44:34.248Z,19.20
2023-01-30T00:44:48.257Z,19.20
2023-01-30T00:45:02.253Z,19.18
2023-01-30T00:45:16.634Z,19.20
2023-01-30T00:45:30.909Z,19.18
2023-01-30T00:45:45.055Z,19.18
2023-01-30T00:45:59.123Z,19.20
2023-01-30T00:46:13.154Z,19.18
2023-01-30T00:46:27.201Z,19.21
2023-01-30T00:46:41.220Z,19.18
2023-01-30T00:46:55.207Z,19.20
2023-01-30T00:47:09.298Z,19.18
2023-01-30T00:47:23.330Z,19.21
2023-01-30T00:47:37.329Z,19.20
2023-01-30T00:47:51.325Z,19.21
2023-01-30T00:48:05.315Z,19.20
2023-01-30T00:48:19.299Z,19.20
2023-01-30T00:48:33.283Z,19.18
2023-01-30T00:49:01.253Z,19.18
2023-01-30T00:49:15.238Z,19.20
2023-01-30T00:49:30.367Z,19.17
2023-01-30T00:49:42.205Z,19.18
2023-01-30T00:49:56.185Z,19.20
2023-01-30T00:50:10.200Z,19.18
2023-01-30T00:50:24.200Z,19.18
2023-01-30T00:50:38.216Z,19.18
2023-01-30T00:50:52.212Z,19.20
2023-01-30T00:51:06.204Z,19.18
2023-01-30T00:51:20.188Z,19.18
2023-01-30T00:51:34.185Z,19.18
2023-01-30T00:51:48.173Z,19.20
2023-01-30T00:52:02.167Z,19.18
2023-01-30T00:52:16.156Z,19.18
2023-01-30T00:52:30.145Z,19.18
2023-01-30T00:52:44.180Z,19.21
2023-01-30T00:52:58.177Z,19.18
2023-01-30T00:53:12.174Z,19.20
2023-01-30T00:53:40.127Z,19.18
2023-01-30T00:53:54.116Z,19.18
2023-01-30T00:54:08.090Z,19.20
2023-01-30T00:54:22.086Z,19.18
2023-01-30T00:54:36.081Z,19.18
2023-01-30T00:54:50.099Z,19.20
2023-01-30T00:55:04.080Z,19.20
2023-01-30T00:55:18.499Z,19.18
2023-01-30T00:55:33.435Z,19.20
2023-01-30T00:55:47.447Z,19.20
2023-01-30T00:56:01.439Z,19.20
2023-01-30T00:56:15.452Z,19.18
2023-01-30T00:56:29.441Z,19.18
2023-01-30T00:56:43.453Z,19.18
2023-01-30T00:56:57.461Z,19.20
2023-01-30T00:57:11.461Z,19.17
2023-01-30T00:57:25.464Z,19.18
2023-01-30T00:57:39.478Z,19.18
2023-01-30T00:57:53.454Z,19.18
2023-01-30T00:58:21.470Z,19.18
2023-01-30T00:58:35.466Z,19.18
2023-01-30T00:58:49.466Z,19.18
2023-01-30T00:59:03.466Z,19.20
2023-01-30T00:59:17.468Z,19.18
2023-01-30T00:59:31.468Z,19.18
2023-01-30T00:59:45.450Z,19.18
2023-01-30T00:59:59.447Z,19.18
2023-01-30T01:00:13.449Z,19.18
2023-01-30T01:00:27.440Z,19.18
2023-01-30T01:00:41.443Z,19.18
2023-01-30T01:00:55.448Z,19.17
2023-01-30T01:01:09.435Z,19.18
2023-01-30T01:01:23.431Z,19.18
2023-01-30T01:01:51.427Z,19.18
2023-01-30T01:02:05.490Z,19.20
2023-01-30T01:02:19.540Z,19.18
2023-01-30T01:02:33.524Z,19.20
2023-01-30T01:02:47.600Z,19.18
2023-01-30T01:03:01.672Z,19.20
2023-01-30T01:03:15.769Z,19.18
2023-01-30T01:03:29.789Z,19.21
2023-01-30T01:03:43.807Z,19.18
2023-01-30T01:03:57.785Z,19.20
2023-01-30T01:04:11.820Z,19.20
2023-01-30T01:04:25.857Z,19.20
2023-01-30T01:04:39.852Z,19.18
2023-01-30T01:04:53.836Z,19.20
2023-01-30T01:05:07.828Z,19.18
2023-01-30T01:05:21.820Z,19.20
2023-01-30T01:05:35.810Z,19.18
2023-01-30T01:05:49.783Z,19.20
2023-01-30T01:06:03.811Z,19.18
2023-01-30T01:06:17.794Z,19.18
2023-01-30T01:06:31.796Z,19.17
2023-01-30T01:06:59.753Z,19.18
2023-01-30T01:07:13.747Z,19.18
2023-01-30T01:07:27.739Z,19.18
2023-01-30T01:07:41.726Z,19.18
2023-01-30T01:07:55.755Z,19.18
2023-01-30T01:08:09.749Z,19.20
2023-01-30T01:08:23.745Z,19.18
2023-01-30T01:08:37.746Z,19.18
2023-01-30T01:08:51.750Z,19.17
2023-01-30T01:09:05.741Z,19.18
2023-01-30T01:09:19.740Z,19.17
2023-01-30T01:09:33.738Z,19.20
2023-01-30T01:09:47.727Z,19.18
2023-01-30T01:10:01.743Z,19.18
2023-01-30T01:10:15.745Z,19.17
2023-01-30T01:10:29.758Z,19.18
2023-01-30T01:10:43.780Z,19.17
2023-01-30T01:10:57.758Z,19.18
2023-01-30T01:11:11.757Z,19.17
2023-01-30T01:11:39.746Z,19.18
2023-01-30T01:11:53.784Z,19.20
2023-01-30T01:12:07.796Z,19.18
2023-01-30T01:12:21.773Z,19.20
2023-01-30T01:12:35.789Z,19.17
2023-01-30T01:12:49.779Z,19.20
2023-01-30T01:13:03.776Z,19.18
2023-01-30T01:13:17.772Z,19.18
2023-01-30T01:13:31.779Z,19.17
2023-01-30T01:13:45.797Z,19.20
2023-01-30T01:13:59.828Z,19.17
2023-01-30T01:14:13.821Z,19.20
2023-01-30T01:14:28.004Z,19.17
2023-01-30T01:14:42.091Z,19.18
2023-01-30T01:14:56.581Z,19.17
2023-01-30T01:15:10.622Z,19.18
2023-01-30T01:15:24.868Z,19.18
2023-01-30T01:15:38.879Z,19.17
2023-01-30T01:15:52.863Z,19.18
2023-01-30T01:16:20.876Z,19.18
2023-01-30T01:16:34.982Z,19.17
2023-01-30T01:16:49.060Z,19.18
2023-01-30T01:17:03.066Z,19.17
2023-01-30T01:17:17.049Z,19.18
2023-01-30T01:17:31.045Z,19.18
2023-01-30T01:17:45.024Z,19.18
2023-01-30T01:17:59.019Z,19.18
2023-01-30T01:18:13.012Z,19.18
2023-01-30T01:18:26.997Z,19.17
2023-01-30T01:18:40.987Z,19.18
2023-01-30T01:18:54.980Z,19.17
2023-01-30T01:19:08.974Z,19.17
2023-01-30T01:19:22.971Z,19.17
2023-01-30T01:19:50.965Z,19.18
2023-01-30T01:20:04.941Z,19.18
2023-01-30T01:20:18.937Z,19.17
2023-01-30T01:20:32.943Z,19.18
2023-01-30T01:20:46.927Z,19.17
2023-01-30T01:21:00.929Z,19.17
2023-01-30T01:21:14.951Z,19.18
2023-01-30T01:21:28.929Z,19.18
2023-01-30T01:21:42.938Z,19.17
2023-01-30T01:21:56.922Z,19.18
2023-01-30T01:22:10.906Z,19.18
2023-01-30T01:22:24.883Z,19.18
2023-01-30T01:22:38.869Z,19.17
2023-01-30T01:22:52.852Z,19.17
2023-01-30T01:23:06.876Z,19.17
2023-01-30T01:23:20.862Z,19.17
2023-01-30T01:23:34.856Z,19.17
2023-01-30T01:23:48.846Z,19.17
2023-01-30T01:24:02.848Z,19.17
2023-01-30T01:24:30.844Z,19.15
2023-01-30T01:24:44.841Z,19.17
2023-01-30T01:24:58.829Z,19.17
2023-01-30T01:25:12.824Z,19.18
2023-01-30T01:25:26.813Z,19.17
2023-01-30T01:25:40.816Z,19.17
2023-01-30T01:25:54.814Z,19.17
2023-01-30T01:26:08.816Z,19.15
2023-01-30T01:26:22.867Z,19.17
2023-01-30T01:26:36.927Z,19.17
2023-01-30T01:26:50.933Z,19.18
2023-01-30T01:27:04.929Z,19.18
2023-01-30T01:27:18.930Z,19.18
2023-01-30T01:27:32.909Z,19.17
2023-01-30T01:27:46.902Z,19.18
2023-01-30T01:28:00.940Z,19.17
2023-01-30T01:28:14.938Z,19.17
2023-01-30T01:28:28.937Z,19.17
2023-01-30T01:28:42.933Z,19.18
2023-01-30T01:29:10.885Z,19.18
2023-01-30T01:29:24.874Z,19.17
2023-01-30T01:29:38.880Z,19.17
2023-01-30T01:29:52.888Z,19.17
2023-01-30T01:30:06.885Z,19.18
2023-01-30T01:30:20.861Z,19.17
2023-01-30T01:30:34.849Z,19.17
2023-01-30T01:30:48.894Z,19.15
2023-01-30T01:31:02.922Z,19.17
2023-01-30T01:31:17.064Z,19.17
2023-01-30T01:31:31.296Z,19.15
2023-01-30T01:31:45.970Z,19.15
2023-01-30T01:32:00.116Z,19.15
2023-01-30T01:32:14.223Z,19.17
2023-01-30T01:32:28.215Z,19.17
2023-01-30T01:32:42.203Z,19.15
2023-01-30T01:33:10.144Z,19.15
2023-01-30T01:33:25.493Z,19.15
2023-01-30T01:33:36.913Z,19.17
2023-01-30T01:33:50.929Z,19.15
2023-01-30T01:34:04.912Z,19.15
2023-01-30T01:34:18.911Z,19.15
2023-01-30T01:34:32.902Z,19.17
2023-01-30T01:34:46.891Z,19.15
2023-01-30T01:35:00.875Z,19.17
2023-01-30T01:35:14.967Z,19.17
2023-01-30T01:35:29.109Z,19.17
2023-01-30T01:35:43.104Z,19.17
2023-01-30T01:35:57.088Z,19.17
2023-01-30T01:36:12.281Z,19.15
2023-01-30T01:36:51.666Z,19.14
2023-01-30T01:36:53.894Z,19.15
2023-01-30T01:36:54.955Z,19.15
2023-01-30T01:37:19.895Z,19.17
2023-01-30T01:37:33.870Z,19.15
2023-01-30T01:37:47.874Z,19.17
2023-01-30T01:38:01.863Z,19.15
2023-01-30T01:38:15.857Z,19.17
2023-01-30T01:38:29.878Z,19.17
2023-01-30T01:38:43.874Z,19.17
2023-01-30T01:38:57.850Z,19.18
2023-01-30T01:39:11.897Z,19.18
2023-01-30T01:39:25.895Z,19.20
2023-01-30T01:39:39.893Z,19.17
2023-01-30T01:39:53.873Z,19.17
2023-01-30T01:40:07.873Z,19.17
2023-01-30T01:40:21.866Z,19.17
2023-01-30T01:40:35.863Z,19.15
2023-01-30T01:40:49.845Z,19.17
2023-01-30T01:41:03.839Z,19.18
2023-01-30T01:41:17.825Z,19.17
2023-01-30T01:41:31.835Z,19.17
2023-01-30T01:41:59.815Z,19.14
2023-01-30T01:42:13.796Z,19.17
2023-01-30T01:42:27.786Z,19.17
2023-01-30T01:42:41.774Z,19.17
2023-01-30T01:42:55.781Z,19.17
2023-01-30T01:43:09.772Z,19.15
2023-01-30T01:43:23.775Z,19.18
2023-01-30T01:43:37.770Z,19.15
2023-01-30T01:43:51.773Z,19.15
2023-01-30T01:44:05.756Z,19.15
2023-01-30T01:44:19.811Z,19.17
2023-01-30T01:44:33.822Z,19.15
2023-01-30T01:44:47.848Z,19.17
2023-01-30T01:45:01.837Z,19.15
2023-01-30T01:45:16.147Z,19.17
2023-01-30T01:45:30.277Z,19.15
2023-01-30T01:45:44.342Z,19.17
2023-01-30T01:45:58.372Z,19.15
2023-01-30T01:46:12.444Z,19.15
2023-01-30T01:46:26.453Z,19.14
2023-01-30T01:46:40.468Z,19.17
2023-01-30T01:46:54.450Z,19.14
2023-01-30T01:47:08.455Z,19.15
2023-01-30T01:47:22.432Z,19.14
2023-01-30T01:47:36.427Z,19.17
2023-01-30T01:47:50.431Z,19.15
2023-01-30T01:48:04.416Z,19.15
2023-01-30T01:48:18.422Z,19.15
2023-01-30T01:48:32.419Z,19.17
2023-01-30T01:48:46.408Z,19.15
2023-01-30T01:49:00.389Z,19.15
2023-01-30T01:49:14.376Z,19.15
2023-01-30T01:49:28.383Z,19.15
2023-01-30T01:49:42.361Z,19.15
2023-01-30T01:50:10.300Z,19.15
2023-01-30T01:50:24.330Z,19.15
2023-01-30T01:50:38.324Z,19.17
2023-01-30T01:50:52.325Z,19.15
2023-01-30T01:51:06.309Z,19.17
2023-01-30T01:51:20.304Z,19.14
2023-01-30T01:51:34.281Z,19.15
2023-01-30T01:51:48.283Z,19.15
2023-01-30T01:52:02.265Z,19.15
2023-01-30T01:52:16.274Z,19.15
2023-01-30T01:52:30.256Z,19.17
2023-01-30T01:52:44.252Z,19.15
2023-01-30T01:52:58.233Z,19.17
2023-01-30T01:53:12.228Z,19.17
2023-01-30T01:53:26.236Z,19.17
2023-01-30T01:53:40.232Z,19.17
2023-01-30T01:53:54.217Z,19.17
2023-01-30T01:54:08.204Z,19.17
2023-01-30T01:54:22.193Z,19.17
2023-01-30T01:54:50.145Z,19.15
2023-01-30T01:55:04.134Z,19.15
2023-01-30T01:55:18.486Z,19.17
2023-01-30T01:55:32.688Z,19.15
2023-01-30T01:55:46.683Z,19.15
2023-01-30T01:56:00.670Z,19.15
2023-01-30T01:56:14.656Z,19.17
2023-01-30T01:56:28.706Z,19.17
2023-01-30T01:56:42.693Z,19.15
2023-01-30T01:56:56.681Z,19.15
2023-01-30T01:57:10.668Z,19.15
2023-01-30T01:57:24.668Z,19.15
2023-01-30T01:57:38.660Z,19.15
2023-01-30T01:57:52.659Z,19.15
2023-01-30T01:58:06.647Z,19.15
2023-01-30T01:58:20.632Z,19.17
2023-01-30T01:58:34.604Z,19.15
2023-01-30T01:58:48.589Z,19.15
2023-01-30T01:59:02.575Z,19.15
2023-01-30T01:59:30.528Z,19.15
2023-01-30T01:59:44.515Z,19.15
2023-01-30T01:59:58.501Z,19.15
2023-01-30T02:00:12.508Z,19.17
2023-01-30T02:00:26.493Z,19.15
2023-01-30T02:00:40.486Z,19.15
2023-01-30T02:00:54.498Z,19.15
2023-01-30T02:01:08.517Z,19.17
2023-01-30T02:01:22.597Z,19.15
2023-01-30T02:01:36.630Z,19.17
2023-01-30T02:01:50.617Z,19.18
2023-01-30T02:02:04.642Z,19.17
2023-01-30T02:02:18.685Z,19.15
2023-01-30T02:02:32.771Z,19.17
2023-01-30T02:03:00.751Z,19.15
2023-01-30T02:03:14.748Z,19.17
2023-01-30T02:03:28.768Z,19.15
2023-01-30T02:03:42.751Z,19.15
2023-01-30T02:03:56.755Z,19.15
2023-01-30T02:04:10.756Z,19.15
2023-01-30T02:04:24.745Z,19.14
2023-01-30T02:04:38.750Z,19.15
2023-01-30T02:04:52.730Z,19.14
2023-01-30T02:05:06.736Z,19.15
2023-01-30T02:05:21.006Z,19.17
2023-01-30T02:05:35.037Z,19.15
2023-01-30T02:05:49.027Z,19.17
2023-01-30T02:06:03.024Z,19.15
2023-01-30T02:06:17.023Z,19.14
2023-01-30T02:06:31.004Z,19.15
2023-01-30T02:06:45.069Z,19.15
2023-01-30T02:06:59.079Z,19.14
2023-01-30T02:07:13.074Z,19.15
2023-01-30T02:07:41.027Z,19.14
2023-01-30T02:07:55.023Z,19.14
2023-01-30T02:08:09.009Z,19.15
2023-01-30T02:08:22.995Z,19.17
2023-01-30T02:08:36.992Z,19.15
2023-01-30T02:08:50.998Z,19.15
2023-01-30T02:09:05.010Z,19.14
2023-01-30T02:09:19.002Z,19.14
2023-01-30T02:09:32.990Z,19.15
2023-01-30T02:09:46.979Z,19.15
2023-01-30T02:10:01.156Z,19.14
2023-01-30T02:10:15.161Z,19.15
2023-01-30T02:10:29.159Z,19.15
2023-01-30T02:10:43.150Z,19.15
2023-01-30T02:10:57.141Z,19.15
2023-01-30T02:11:11.140Z,19.14
2023-01-30T02:11:25.163Z,19.15
2023-01-30T02:11:39.153Z,19.15
2023-01-30T02:11:53.200Z,19.14
2023-01-30T02:12:21.166Z,19.15
2023-01-30T02:12:35.165Z,19.15
2023-01-30T02:12:49.172Z,19.15
2023-01-30T02:13:03.157Z,19.15
2023-01-30T02:13:17.150Z,19.15
2023-01-30T02:13:31.133Z,19.14
2023-01-30T02:13:45.113Z,19.14
2023-01-30T02:13:59.093Z,19.15
2023-01-30T02:14:13.083Z,19.14
2023-01-30T02:14:27.071Z,19.14
2023-01-30T02:14:41.079Z,19.14
2023-01-30T02:14:55.091Z,19.14
2023-01-30T02:15:09.107Z,19.15
2023-01-30T02:15:23.094Z,19.14
2023-01-30T02:15:51.046Z,19.14
2023-01-30T02:16:05.039Z,19.14
2023-01-30T02:16:19.070Z,19.14
2023-01-30T02:16:33.057Z,19.14
2023-01-30T02:16:47.058Z,19.13
2023-01-30T02:17:01.052Z,19.15
2023-01-30T02:17:15.075Z,19.13
2023-01-30T02:17:29.103Z,19.14
2023-01-30T02:17:43.194Z,19.14
2023-01-30T02:17:57.218Z,19.14
2023-01-30T02:18:11.211Z,19.13
2023-01-30T02:18:25.208Z,19.14
2023-01-30T02:18:39.209Z,19.14
2023-01-30T02:18:53.226Z,19.14
2023-01-30T02:19:07.219Z,19.13
2023-01-30T02:19:21.213Z,19.14
2023-01-30T02:19:35.207Z,19.13
2023-01-30T02:19:49.208Z,19.14
2023-01-30T02:20:03.189Z,19.13
2023-01-30T02:20:31.155Z,19.13
2023-01-30T02:20:45.139Z,19.14
2023-01-30T02:20:59.133Z,19.13
2023-01-30T02:21:13.115Z,19.13
2023-01-30T02:21:27.105Z,19.14
2023-01-30T02:21:41.107Z,19.13
2023-01-30T02:21:55.097Z,19.13
2023-01-30T02:22:09.084Z,19.14
2023-01-30T02:22:23.088Z,19.13
2023-01-30T02:22:37.084Z,19.13
2023-01-30T02:22:51.083Z,19.14
2023-01-30T02:23:05.066Z,19.14
2023-01-30T02:23:19.065Z,19.14
2023-01-30T02:23:33.066Z,19.13
2023-01-30T02:23:47.057Z,19.13
2023-01-30T02:24:01.049Z,19.13
2023-01-30T02:24:15.078Z,19.14
2023-01-30T02:24:29.052Z,19.13
2023-01-30T02:24:43.169Z,19.13
2023-01-30T02:25:11.168Z,19.13
2023-01-30T02:25:25.172Z,19.13
2023-01-30T02:25:39.182Z,19.13
2023-01-30T02:25:55.065Z,19.13
2023-01-30T02:26:07.096Z,19.13
2023-01-30T02:26:21.119Z,19.13
2023-01-30T02:26:35.131Z,19.13
2023-01-30T02:26:49.111Z,19.14
2023-01-30T02:27:03.092Z,19.14
2023-01-30T02:27:17.072Z,19.13
2023-01-30T02:27:31.057Z,19.14
2023-01-30T02:27:45.037Z,19.13
2023-01-30T02:27:59.037Z,19.13
2023-01-30T02:28:13.021Z,19.10
2023-01-30T02:28:40.998Z,19.11
2023-01-30T02:28:54.977Z,19.13
2023-01-30T02:29:08.965Z,19.13
2023-01-30T02:29:23.189Z,19.11
2023-01-30T02:29:37.176Z,19.13
2023-01-30T02:29:51.172Z,19.14
2023-01-30T02:30:05.189Z,19.13
2023-01-30T02:30:19.243Z,19.13
2023-01-30T02:30:33.375Z,19.14
2023-01-30T02:30:47.461Z,19.14
2023-01-30T02:31:01.631Z,19.13
2023-01-30T02:31:15.883Z,19.14
2023-01-30T02:31:30.087Z,19.14
2023-01-30T02:31:44.193Z,19.14
2023-01-30T02:31:58.235Z,19.14
2023-01-30T02:32:12.223Z,19.15
2023-01-30T02:32:26.232Z,19.14
2023-01-30T02:32:40.225Z,19.14
2023-01-30T02:32:54.216Z,19.11
2023-01-30T02:33:08.195Z,19.14
2023-01-30T02:33:22.195Z,19.13
2023-01-30T02:33:50.163Z,19.13
2023-01-30T02:34:04.176Z,19.14
2023-01-30T02:34:18.174Z,19.13
2023-01-30T02:34:32.251Z,19.14
2023-01-30T02:34:46.239Z,19.14
2023-01-30T02:35:00.226Z,19.14
2023-01-30T02:35:14.247Z,19.13
2023-01-30T02:35:28.235Z,19.14
2023-01-30T02:35:42.249Z,19.13
2023-01-30T02:35:56.227Z,19.13
2023-01-30T02:36:10.226Z,19.14
2023-01-30T02:36:24.202Z,19.13
2023-01-30T02:36:38.193Z,19.13
2023-01-30T02:36:52.178Z,19.14
2023-01-30T02:37:06.210Z,19.13
2023-01-30T02:37:20.207Z,19.14
2023-01-30T02:37:34.215Z,19.13
2023-01-30T02:37:48.196Z,19.13
2023-01-30T02:38:02.208Z,19.13
2023-01-30T02:38:30.180Z,19.13
2023-01-30T02:38:44.164Z,19.14
2023-01-30T02:38:58.147Z,19.13
2023-01-30T02:39:12.138Z,19.13
2023-01-30T02:39:26.126Z,19.13
2023-01-30T02:39:40.108Z,19.14
2023-01-30T02:39:54.105Z,19.13
2023-01-30T02:40:08.095Z,19.13
2023-01-30T02:40:22.091Z,19.13
2023-01-30T02:40:36.069Z,19.13
2023-01-30T02:40:50.059Z,19.13
2023-01-30T02:41:04.045Z,19.13
2023-01-30T02:41:18.037Z,19.13
2023-01-30T02:41:32.024Z,19.13
2023-01-30T02:41:46.017Z,19.11
2023-01-30T02:42:00.084Z,19.13
2023-01-30T02:42:14.119Z,19.13
2023-01-30T02:42:28.109Z,19.13
2023-01-30T02:42:42.097Z,19.11
2023-01-30T02:43:10.057Z,19.11
2023-01-30T02:43:24.043Z,19.13
2023-01-30T02:43:38.036Z,19.13
2023-01-30T02:43:52.028Z,19.14
2023-01-30T02:44:06.037Z,19.13
2023-01-30T02:44:20.023Z,19.14
2023-01-30T02:44:34.013Z,19.13
2023-01-30T02:44:47.991Z,19.14
2023-01-30T02:45:01.991Z,19.11
2023-01-30T02:45:16.459Z,19.14
2023-01-30T02:45:30.644Z,19.13
2023-01-30T02:45:44.636Z,19.14
2023-01-30T02:45:58.739Z,19.13
2023-01-30T02:46:12.820Z,19.13
2023-01-30T02:46:40.829Z,19.14
2023-01-30T02:46:54.819Z,19.13
2023-01-30T02:47:08.803Z,19.14
2023-01-30T02:47:22.793Z,19.13
2023-01-30T02:47:36.981Z,19.13
2023-01-30T02:47:51.011Z,19.11
2023-01-30T02:48:05.000Z,19.13
2023-01-30T02:48:18.986Z,19.11
2023-01-30T02:48:32.966Z,19.14
2023-01-30T02:48:46.946Z,19.10
2023-01-30T02:49:00.932Z,19.13
2023-01-30T02:49:14.949Z,19.11
2023-01-30T02:49:28.937Z,19.13
2023-01-30T02:49:42.935Z,19.11
2023-01-30T02:49:56.924Z,19.13
2023-01-30T02:50:10.948Z,19.11
2023-01-30T02:50:24.938Z,19.11
2023-01-30T02:50:38.940Z,19.11
2023-01-30T02:50:52.920Z,19.14
2023-01-30T02:51:20.959Z,19.13
2023-01-30T02:51:34.953Z,19.13
2023-01-30T02:51:48.939Z,19.13
2023-01-30T02:52:02.934Z,19.13
2023-01-30T02:52:18.442Z,19.13
2023-01-30T02:52:30.034Z,19.11
2023-01-30T02:52:44.034Z,19.13
2023-01-30T02:52:58.020Z,19.13
2023-01-30T02:53:12.015Z,19.13
2023-01-30T02:53:26.017Z,19.14
2023-01-30T02:53:40.015Z,19.13
2023-01-30T02:53:54.004Z,19.11
2023-01-30T02:54:08.006Z,19.13
2023-01-30T02:54:22.012Z,19.13
2023-01-30T02:54:36.010Z,19.11
2023-01-30T02:54:49.995Z,19.13
2023-01-30T02:55:04.004Z,19.11
2023-01-30T02:55:18.383Z,19.13
2023-01-30T02:55:32.545Z,19.11
2023-01-30T02:56:00.555Z,19.10
2023-01-30T02:56:14.583Z,19.11
2023-01-30T02:56:28.579Z,19.10
2023-01-30T02:56:42.560Z,19.10
2023-01-30T02:56:56.542Z,19.10
2023-01-30T02:57:10.534Z,19.11
2023-01-30T02:57:24.533Z,19.11
2023-01-30T02:57:38.516Z,19.13
2023-01-30T02:57:52.503Z,19.11
2023-01-30T02:58:06.489Z,19.13
2023-01-30T02:58:20.474Z,19.11
2023-01-30T02:58:34.470Z,19.11
2023-01-30T02:58:48.495Z,19.10
2023-01-30T02:59:02.468Z,19.13
2023-01-30T02:59:30.430Z,19.11
2023-01-30T02:59:44.417Z,19.10
2023-01-30T02:59:58.401Z,19.14
2023-01-30T03:00:12.402Z,19.11
2023-01-30T03:00:26.586Z,19.11
2023-01-30T03:00:40.582Z,19.11
2023-01-30T03:00:54.577Z,19.11
2023-01-30T03:01:08.697Z,19.10
2023-01-30T03:01:22.836Z,19.11
2023-01-30T03:01:36.945Z,19.11
2023-01-30T03:01:50.955Z,19.10
2023-01-30T03:02:04.981Z,19.10
2023-01-30T03:02:19.009Z,19.11
2023-01-30T03:02:33.069Z,19.10
2023-01-30T03:02:47.166Z,19.11
2023-01-30T03:03:01.256Z,19.11
2023-01-30T03:03:15.250Z,19.11
2023-01-30T03:03:29.232Z,19.10
2023-01-30T03:03:43.238Z,19.10
2023-01-30T03:04:11.249Z,19.10
2023-01-30T03:04:25.250Z,19.08
2023-01-30T03:04:39.256Z,19.11
2023-01-30T03:04:53.238Z,19.10
2023-01-30T03:05:07.248Z,19.11
2023-01-30T03:05:21.250Z,19.10
2023-01-30T03:05:35.242Z,19.10
2023-01-30T03:05:49.231Z,19.10
2023-01-30T03:06:03.226Z,19.10
2023-01-30T03:06:17.205Z,19.10
2023-01-30T03:06:31.196Z,19.10
2023-01-30T03:06:45.213Z,19.11
2023-01-30T03:06:59.363Z,19.10
2023-01-30T03:07:13.368Z,19.10
2023-01-30T03:07:27.355Z,19.11
2023-01-30T03:07:41.344Z,19.10
2023-01-30T03:07:55.343Z,19.11
2023-01-30T03:08:09.332Z,19.08
2023-01-30T03:08:23.376Z,19.10
2023-01-30T03:08:51.339Z,19.11
2023-01-30T03:09:05.326Z,19.08
2023-01-30T03:09:19.316Z,19.11
2023-01-30T03:09:33.429Z,19.10
2023-01-30T03:09:47.564Z,19.13
2023-01-30T03:10:01.692Z,19.10
2023-01-30T03:10:15.861Z,19.10